Terminal Aerodrome Forecast
Issued by NWS

Home | Current Version | Previous Version | Text Only | Print | Product List | Glossary On
Versions: 1 2 3 4 5 6 7 8 9 10 11 12 13 14 15 16 17
263
FTUS46 KSTO 061720
TAFSAC
TAF
KSAC 061720Z 0618/0718 VRB04KT P6SM SCT250
      TEMPO 0713/0717 3SM BR=

USA.gov is the U.S. government's official web portal to all federal, state and local government web resources and services.